Time;durP1;ratioP1;P1;durP2;ratioP2;P2;SDS_P1;SDS_P2;PMS_P1;PMS_P2;Temp;Humidity;BMP_temperature;BMP_pressure;BME280_temperature;BME280_humidity;BME280_pressure;Samples;Min_cycle;Max_cycle;Signal;HPM_P1;HPM_P2
2023/02/07 00:00:32;;;;;;;;;;;20.20;50.70;;;;;;1563017;75;1929;-67
2023/02/07 00:02:34;;;;;;;;;;;20.20;50.50;;;;;;1557341;75;770;-68
2023/02/07 00:04:36;;;;;;;;;;;20.20;50.40;;;;;;1568074;75;700;-69
2023/02/07 00:06:38;;;;;;;;;;;20.20;50.50;;;;;;1566158;74;1246;-69
2023/02/07 00:08:40;;;;;;;;;;;20.20;50.40;;;;;;1568416;74;775;-68
2023/02/07 00:10:41;;;;;;;;;;;20.20;50.50;;;;;;1556597;75;743;-71
2023/02/07 00:12:43;;;;;;;;;;;20.20;50.40;;;;;;1574965;75;620;-67
2023/02/07 00:14:45;;;;;;;;;;;20.20;50.50;;;;;;1564418;75;780;-68
2023/02/07 00:16:47;;;;;;;;;;;20.20;50.60;;;;;;1566306;74;1159;-67
2023/02/07 00:18:51;;;;;;;;;;;20.20;50.60;;;;;;1557599;73;1923;-68
2023/02/07 00:20:59;;;;;;;;;;;20.20;50.60;;;;;;1559049;75;748;-72
2023/02/07 00:23:01;;;;;;;;;;;20.20;50.60;;;;;;1555457;75;771;-68
2023/02/07 00:25:03;;;;;;;;;;;20.20;50.50;;;;;;1557200;75;718;-70
2023/02/07 00:27:05;;;;;;;;;;;20.20;50.50;;;;;;1558187;75;1136;-69
2023/02/07 00:29:07;;;;;;;;;;;20.30;50.70;;;;;;1561059;75;624;-68
2023/02/07 00:31:16;;;;;;;;;;;20.20;50.70;;;;;;1571549;75;792;-67
2023/02/07 00:33:18;;;;;;;;;;;20.20;50.60;;;;;;1576022;75;701;-69
2023/02/07 00:35:19;;;;;;;;;;;20.20;50.60;;;;;;1561271;75;735;-69
2023/02/07 00:37:22;;;;;;;;;;;20.20;50.60;;;;;;1565767;74;1113;-67
2023/02/07 00:39:23;;;;;;;;;;;20.20;50.60;;;;;;1555632;75;1917;-67
2023/02/07 00:41:26;;;;;;;;;;;20.20;50.60;;;;;;1568050;75;788;-68
2023/02/07 00:43:29;;;;;;;;;;;20.30;50.80;;;;;;1556499;75;714;-67
2023/02/07 00:45:30;;;;;;;;;;;20.30;51.00;;;;;;1559102;75;708;-70
2023/02/07 00:47:32;;;;;;;;;;;20.20;51.00;;;;;;1564676;75;1142;-66
2023/02/07 00:49:34;;;;;;;;;;;20.30;51.00;;;;;;1562296;75;789;-67
2023/02/07 00:51:36;;;;;;;;;;;20.20;50.90;;;;;;1576688;75;729;-66
2023/02/07 00:53:38;;;;;;;;;;;20.10;50.90;;;;;;1563886;75;712;-67
2023/02/07 00:55:40;;;;;;;;;;;20.20;50.90;;;;;;1552496;75;789;-66
2023/02/07 00:57:42;;;;;;;;;;;20.20;51.00;;;;;;1569649;70;225738;-60
2023/02/07 00:59:44;;;;;;;;;;;20.20;50.80;;;;;;1569711;74;1936;-57
2023/02/07 01:01:45;;;;;;;;;;;20.30;51.10;;;;;;1566924;74;816;-58
2023/02/07 01:03:47;;;;;;;;;;;20.20;50.80;;;;;;1569153;76;736;-59
2023/02/07 01:05:49;;;;;;;;;;;20.20;50.90;;;;;;1557294;76;728;-60
2023/02/07 01:07:51;;;;;;;;;;;20.30;51.00;;;;;;1562702;76;786;-59
2023/02/07 01:09:53;;;;;;;;;;;20.20;50.90;;;;;;1554580;76;1140;-60
2023/02/07 01:11:55;;;;;;;;;;;20.30;51.00;;;;;;1568984;75;603;-59
2023/02/07 01:13:58;;;;;;;;;;;20.20;50.90;;;;;;1568595;75;727;-58
2023/02/07 01:16:00;;;;;;;;;;;20.20;50.90;;;;;;1560639;76;780;-59
2023/02/07 01:18:02;;;;;;;;;;;20.30;51.10;;;;;;1561799;74;743;-57
2023/02/07 01:20:04;;;;;;;;;;;20.30;51.10;;;;;;1553891;75;1936;-58
2023/02/07 01:22:05;;;;;;;;;;;20.20;51.10;;;;;;1558152;76;752;-58
2023/02/07 01:24:07;;;;;;;;;;;20.30;51.30;;;;;;1554773;76;695;-58
2023/02/07 01:26:09;;;;;;;;;;;20.30;51.30;;;;;;1569316;76;612;-59
2023/02/07 01:28:12;;;;;;;;;;;20.30;51.30;;;;;;1566201;75;732;-60
2023/02/07 01:30:13;;;;;;;;;;;20.30;51.30;;;;;;1566921;74;1131;-59
2023/02/07 01:32:15;;;;;;;;;;;20.30;51.40;;;;;;1561907;74;734;-59
2023/02/07 01:34:17;;;;;;;;;;;20.30;51.30;;;;;;1554555;76;573;-58
2023/02/07 01:36:19;;;;;;;;;;;20.30;51.30;;;;;;1568760;76;1616;-58
2023/02/07 01:38:21;;;;;;;;;;;20.40;51.30;;;;;;1561980;75;780;-58
2023/02/07 01:40:23;;;;;;;;;;;20.30;51.40;;;;;;1556163;74;1944;-58
2023/02/07 01:42:26;;;;;;;;;;;20.30;51.50;;;;;;1561463;76;770;-58
2023/02/07 01:44:30;;;;;;;;;;;20.40;51.50;;;;;;1568103;74;790;-58
2023/02/07 01:46:32;;;;;;;;;;;20.30;51.50;;;;;;1566154;74;899;-58
2023/02/07 01:48:35;;;;;;;;;;;20.30;51.50;;;;;;1563017;75;768;-58
2023/02/07 01:50:36;;;;;;;;;;;20.30;51.30;;;;;;1555596;76;1109;-59
2023/02/07 01:52:39;;;;;;;;;;;20.30;51.40;;;;;;1568932;75;749;-58
2023/02/07 01:54:41;;;;;;;;;;;20.40;51.20;;;;;;1567768;76;772;-58
2023/02/07 01:56:44;;;;;;;;;;;20.50;51.10;;;;;;1560153;75;723;-58
2023/02/07 01:58:46;;;;;;;;;;;20.50;51.00;;;;;;1555251;75;795;-58
2023/02/07 02:00:48;;;;;;;;;;;20.50;51.10;;;;;;1560751;74;1942;-59
2023/02/07 02:02:50;;;;;;;;;;;20.50;51.00;;;;;;1558794;76;735;-60
2023/02/07 02:04:52;;;;;;;;;;;20.50;51.00;;;;;;1563053;75;785;-59
2023/02/07 02:06:54;;;;;;;;;;;20.50;51.00;;;;;;1557189;75;1003;-58
2023/02/07 02:08:57;;;;;;;;;;;20.50;51.10;;;;;;1561144;76;803;-60
2023/02/07 02:11:09;;;;;;;;;;;20.50;51.10;;;;;;1559375;76;1135;-57
2023/02/07 02:13:16;;;;;;;;;;;20.60;51.00;;;;;;1553236;76;799;-61
2023/02/07 02:15:36;;;;;;;;;;;20.60;50.80;;;;;;1550532;75;1772;-60
2023/02/07 02:17:40;;;;;;;;;;;20.70;50.90;;;;;;1567441;74;804;-59
2023/02/07 02:19:52;;;;;;;;;;;20.70;50.70;;;;;;1558370;75;1947;-57
2023/02/07 02:21:58;;;;;;;;;;;20.70;50.70;;;;;;1510800;77;1066;-58
2023/02/07 02:24:18;;;;;;;;;;;20.80;50.50;;;;;;1553913;75;940;-57
2023/02/07 02:26:38;;;;;;;;;;;20.80;50.40;;;;;;1545548;75;572;-59
2023/02/07 02:28:44;;;;;;;;;;;20.80;50.30;;;;;;1562137;76;695;-58
2023/02/07 02:30:48;;;;;;;;;;;20.80;50.30;;;;;;1557610;74;1109;-59
2023/02/07 02:32:57;;;;;;;;;;;20.90;50.40;;;;;;1551293;74;1850;-59
2023/02/07 02:35:10;;;;;;;;;;;20.90;50.20;;;;;;1542534;76;709;-57
2023/02/07 02:37:13;;;;;;;;;;;20.80;50.50;;;;;;1486512;79;1059;-58
2023/02/07 02:39:23;;;;;;;;;;;20.70;50.80;;;;;;1549287;75;907;-60
2023/02/07 02:41:26;;;;;;;;;;;20.80;50.90;;;;;;1562287;76;1952;-57
2023/02/07 02:43:39;;;;;;;;;;;20.70;51.00;;;;;;1557097;75;1679;-59
2023/02/07 02:45:42;;;;;;;;;;;20.60;51.00;;;;;;1559501;76;1773;-57
2023/02/07 02:47:45;;;;;;;;;;;20.60;51.10;;;;;;1571521;74;1922;-57
2023/02/07 02:49:47;;;;;;;;;;;20.60;51.50;;;;;;1563723;75;1115;-58
2023/02/07 02:51:50;;;;;;;;;;;20.50;51.30;;;;;;1563006;75;740;-57
2023/02/07 02:53:55;;;;;;;;;;;20.50;51.30;;;;;;1559031;76;735;-58
2023/02/07 02:56:01;;;;;;;;;;;20.50;51.30;;;;;;1561898;76;727;-57
2023/02/07 02:58:05;;;;;;;;;;;20.50;51.30;;;;;;1550400;76;718;-57
2023/02/07 03:00:18;;;;;;;;;;;20.50;51.30;;;;;;1560799;75;1952;-58
2023/02/07 03:02:24;;;;;;;;;;;20.60;51.30;;;;;;1565923;74;1893;-57
2023/02/07 03:04:43;;;;;;;;;;;20.70;51.30;;;;;;1554819;76;1727;-58
2023/02/07 03:06:53;;;;;;;;;;;20.70;51.10;;;;;;1562067;76;723;-59
2023/02/07 03:08:59;;;;;;;;;;;20.80;50.90;;;;;;1562276;76;1936;-58
2023/02/07 03:11:08;;;;;;;;;;;20.90;50.70;;;;;;1559796;75;1121;-59
2023/02/07 03:13:12;;;;;;;;;;;20.90;50.70;;;;;;1563373;75;777;-59
2023/02/07 03:15:18;;;;;;;;;;;20.90;50.50;;;;;;1558591;75;1917;-58
2023/02/07 03:17:22;;;;;;;;;;;20.90;50.70;;;;;;1558005;74;646;-57
2023/02/07 03:19:25;;;;;;;;;;;20.80;50.50;;;;;;1560914;75;1808;-58
2023/02/07 03:21:27;;;;;;;;;;;20.90;50.90;;;;;;1562409;75;1954;-58
2023/02/07 03:23:29;;;;;;;;;;;20.80;51.00;;;;;;1558243;76;724;-57
2023/02/07 03:25:31;;;;;;;;;;;20.80;51.10;;;;;;1548227;76;744;-57
2023/02/07 03:27:33;;;;;;;;;;;20.70;51.20;;;;;;1556829;75;778;-58
2023/02/07 03:29:35;;;;;;;;;;;20.60;51.20;;;;;;1554032;75;1665;-58
2023/02/07 03:31:38;;;;;;;;;;;20.60;51.20;;;;;;1554373;74;744;-58
2023/02/07 03:33:39;;;;;;;;;;;20.60;51.30;;;;;;1556704;75;742;-58
2023/02/07 03:35:52;;;;;;;;;;;20.60;51.60;;;;;;1558812;76;767;-57
2023/02/07 03:37:55;;;;;;;;;;;20.60;51.60;;;;;;1558375;75;772;-58
2023/02/07 03:39:57;;;;;;;;;;;20.60;51.90;;;;;;1552539;76;1954;-59
2023/02/07 03:42:00;;;;;;;;;;;20.60;51.80;;;;;;1559580;76;775;-60
2023/02/07 03:44:05;;;;;;;;;;;20.60;51.90;;;;;;1549741;75;730;-58
2023/02/07 03:46:07;;;;;;;;;;;20.60;51.90;;;;;;1561718;74;1611;-59
2023/02/07 03:48:09;;;;;;;;;;;20.60;51.90;;;;;;1559385;76;820;-57
2023/02/07 03:50:11;;;;;;;;;;;20.60;52.10;;;;;;1555216;76;1142;-58
2023/02/07 03:52:13;;;;;;;;;;;20.60;51.90;;;;;;1551398;75;792;-59
2023/02/07 03:54:15;;;;;;;;;;;20.60;52.10;;;;;;1555001;76;960;-59
2023/02/07 03:56:17;;;;;;;;;;;20.60;52.10;;;;;;1547435;76;1522;-58
2023/02/07 03:58:18;;;;;;;;;;;20.70;52.10;;;;;;1552790;75;678;-59
2023/02/07 04:00:20;;;;;;;;;;;20.60;51.90;;;;;;1562784;74;1928;-58
2023/02/07 04:02:22;;;;;;;;;;;20.70;52.30;;;;;;1543776;75;787;-57
2023/02/07 04:04:24;;;;;;;;;;;20.70;52.30;;;;;;1556776;76;643;-58
2023/02/07 04:06:26;;;;;;;;;;;20.70;51.90;;;;;;1551116;75;792;-58
2023/02/07 04:08:28;;;;;;;;;;;20.80;51.90;;;;;;1563627;76;753;-58
2023/02/07 04:10:30;;;;;;;;;;;20.80;51.80;;;;;;1557922;75;1569;-58
2023/02/07 04:12:31;;;;;;;;;;;20.80;51.80;;;;;;1557114;76;757;-59
2023/02/07 04:14:33;;;;;;;;;;;20.70;51.90;;;;;;1554815;75;960;-59
2023/02/07 04:16:35;;;;;;;;;;;20.70;51.90;;;;;;1563181;76;732;-57
2023/02/07 04:18:37;;;;;;;;;;;20.80;52.00;;;;;;1550833;75;741;-60
2023/02/07 04:20:39;;;;;;;;;;;20.90;52.00;;;;;;1562810;75;1940;-58
2023/02/07 04:22:41;;;;;;;;;;;20.80;51.90;;;;;;1563320;76;723;-60
2023/02/07 04:24:43;;;;;;;;;;;20.80;51.80;;;;;;1562519;76;1491;-61
2023/02/07 04:26:45;;;;;;;;;;;20.80;51.80;;;;;;1559811;75;728;-58
2023/02/07 04:28:46;;;;;;;;;;;20.80;51.90;;;;;;1562893;76;775;-57
2023/02/07 04:30:48;;;;;;;;;;;20.80;51.90;;;;;;1556248;74;1149;-57
2023/02/07 04:32:50;;;;;;;;;;;20.80;51.80;;;;;;1562923;76;752;-58
2023/02/07 04:34:52;;;;;;;;;;;20.80;51.80;;;;;;1563835;75;852;-58
2023/02/07 04:36:54;;;;;;;;;;;20.90;51.90;;;;;;1560662;76;710;-58
2023/02/07 04:38:56;;;;;;;;;;;20.80;51.70;;;;;;1558446;76;1527;-57
2023/02/07 04:41:03;;;;;;;;;;;20.80;51.80;;;;;;1556142;75;1955;-58
2023/02/07 04:43:04;;;;;;;;;;;20.80;51.80;;;;;;1562850;75;787;-59
2023/02/07 04:45:07;;;;;;;;;;;20.90;52.10;;;;;;1571552;74;710;-57
2023/02/07 04:47:08;;;;;;;;;;;20.80;52.00;;;;;;1563389;76;814;-58
2023/02/07 04:49:10;;;;;;;;;;;20.80;51.90;;;;;;1563537;76;759;-58
2023/02/07 04:51:12;;;;;;;;;;;20.80;52.10;;;;;;1562294;75;1131;-58
2023/02/07 04:53:14;;;;;;;;;;;20.90;52.10;;;;;;1563853;76;1637;-58
2023/02/07 04:55:16;;;;;;;;;;;20.90;52.10;;;;;;1562490;76;747;-59
2023/02/07 04:57:18;;;;;;;;;;;20.80;51.90;;;;;;1562104;76;775;-57
2023/02/07 04:59:20;;;;;;;;;;;20.90;52.10;;;;;;1549459;76;797;-58
2023/02/07 05:01:22;;;;;;;;;;;20.90;51.80;;;;;;1561739;74;1947;-59
2023/02/07 05:03:24;;;;;;;;;;;20.90;51.80;;;;;;1557157;76;727;-58
2023/02/07 05:05:26;;;;;;;;;;;20.90;51.80;;;;;;1558271;75;776;-58
2023/02/07 05:07:28;;;;;;;;;;;20.90;51.80;;;;;;1560349;75;1541;-60
2023/02/07 05:09:30;;;;;;;;;;;20.90;52.00;;;;;;1562061;75;1143;-61
2023/02/07 05:11:31;;;;;;;;;;;20.90;51.90;;;;;;1564043;75;799;-61
2023/02/07 05:13:33;;;;;;;;;;;20.80;51.80;;;;;;1555904;75;943;-60
2023/02/07 05:15:35;;;;;;;;;;;20.80;51.80;;;;;;1564158;74;811;-60
2023/02/07 05:17:37;;;;;;;;;;;20.90;51.90;;;;;;1549655;76;746;-60
2023/02/07 05:19:39;;;;;;;;;;;20.80;51.80;;;;;;1560072;75;1156;-60
2023/02/07 05:21:41;;;;;;;;;;;20.80;51.80;;;;;;1549853;75;1950;-60
2023/02/07 05:23:43;;;;;;;;;;;20.90;52.30;;;;;;1557913;76;706;-60
2023/02/07 05:25:46;;;;;;;;;;;20.90;52.10;;;;;;1560515;76;743;-63
2023/02/07 05:27:48;;;;;;;;;;;20.90;52.10;;;;;;1563793;75;792;-60
2023/02/07 05:29:50;;;;;;;;;;;20.90;52.10;;;;;;1562880;74;1132;-60
2023/02/07 05:34:12;;;;;;;;;;;20.90;51.90;;;;;;1555143;76;1630;-59
2023/02/07 05:36:14;;;;;;;;;;;21.00;51.90;;;;;;1556112;75;1697;-60
2023/02/07 05:38:16;;;;;;;;;;;21.00;51.80;;;;;;1562891;76;799;-65
2023/02/07 05:40:18;;;;;;;;;;;20.90;51.70;;;;;;1559582;75;1152;-61
2023/02/07 05:42:20;;;;;;;;;;;21.00;51.70;;;;;;1554722;76;1936;-60
2023/02/07 05:44:22;;;;;;;;;;;20.90;51.80;;;;;;1560502;74;741;-60
2023/02/07 05:46:23;;;;;;;;;;;21.00;51.80;;;;;;1547060;76;717;-60
2023/02/07 05:48:25;;;;;;;;;;;21.00;52.00;;;;;;1549191;76;725;-60
2023/02/07 05:50:27;;;;;;;;;;;21.00;51.80;;;;;;1550823;75;1613;-60
2023/02/07 05:52:29;;;;;;;;;;;21.00;51.80;;;;;;1557301;75;865;-60
2023/02/07 05:54:31;;;;;;;;;;;21.00;51.80;;;;;;1558225;76;784;-60
2023/02/07 05:56:33;;;;;;;;;;;20.90;51.80;;;;;;1562375;75;781;-59
2023/02/07 05:58:35;;;;;;;;;;;21.00;52.10;;;;;;1551656;74;717;-58
2023/02/07 06:00:37;;;;;;;;;;;21.00;52.10;;;;;;1561842;75;1127;-59
2023/02/07 06:02:39;;;;;;;;;;;21.00;52.20;;;;;;1558154;76;1928;-59
2023/02/07 06:04:41;;;;;;;;;;;21.00;52.00;;;;;;1555081;75;983;-62
2023/02/07 06:06:43;;;;;;;;;;;21.00;51.80;;;;;;1560751;75;780;-60
2023/02/07 06:08:44;;;;;;;;;;;21.00;51.80;;;;;;1557552;75;741;-60
2023/02/07 06:10:48;;;;;;;;;;;21.00;52.20;;;;;;1561979;75;1186;-61
2023/02/07 06:12:50;;;;;;;;;;;21.00;52.10;;;;;;1558111;75;1057;-63
2023/02/07 06:14:52;;;;;;;;;;;21.10;52.10;;;;;;1558500;74;746;-60
2023/02/07 06:16:53;;;;;;;;;;;21.00;52.10;;;;;;1558475;76;1534;-59
2023/02/07 06:18:55;;;;;;;;;;;21.00;52.40;;;;;;1556631;75;768;-60
2023/02/07 06:20:57;;;;;;;;;;;21.10;52.10;;;;;;1557434;75;1939;-60
2023/02/07 06:22:59;;;;;;;;;;;21.00;51.80;;;;;;1564083;76;737;-60
2023/02/07 06:25:01;;;;;;;;;;;21.10;51.60;;;;;;1554744;76;720;-61
2023/02/07 06:27:03;;;;;;;;;;;21.10;51.30;;;;;;1557329;75;748;-60
2023/02/07 06:29:05;;;;;;;;;;;21.10;51.50;;;;;;1568264;74;777;-60
2023/02/07 06:31:07;;;;;;;;;;;21.20;51.60;;;;;;1550805;76;1422;-60
2023/02/07 06:33:08;;;;;;;;;;;21.10;51.50;;;;;;1555795;76;735;-60
2023/02/07 06:35:10;;;;;;;;;;;21.10;51.40;;;;;;1554849;75;793;-61
2023/02/07 06:37:12;;;;;;;;;;;21.10;51.50;;;;;;1550036;76;769;-61
2023/02/07 06:39:14;;;;;;;;;;;21.10;51.30;;;;;;1563086;76;760;-60
2023/02/07 06:41:16;;;;;;;;;;;21.10;51.30;;;;;;1563090;75;1936;-60
2023/02/07 06:43:18;;;;;;;;;;;21.00;51.30;;;;;;1553754;74;763;-60
2023/02/07 06:45:20;;;;;;;;;;;21.00;51.20;;;;;;1548846;76;1538;-61
2023/02/07 06:47:22;;;;;;;;;;;21.00;51.10;;;;;;1547686;76;763;-60
2023/02/07 06:49:23;;;;;;;;;;;21.00;51.10;;;;;;1562443;76;699;-60
2023/02/07 06:51:25;;;;;;;;;;;21.00;50.90;;;;;;1559447;75;1128;-60
2023/02/07 06:53:28;;;;;;;;;;;21.00;50.60;;;;;;1551040;76;672;-60
2023/02/07 06:55:31;;;;;;;;;;;21.00;50.50;;;;;;1561929;76;899;-62
2023/02/07 06:57:33;;;;;;;;;;;21.00;50.20;;;;;;1562399;74;755;-60
2023/02/07 06:59:34;;;;;;;;;;;21.00;50.20;;;;;;1562459;75;1567;-60
2023/02/07 07:01:36;;;;;;;;;;;20.90;50.20;;;;;;1557170;76;1950;-61
2023/02/07 07:03:38;;;;;;;;;;;20.90;50.20;;;;;;1561774;76;790;-60
2023/02/07 07:05:40;;;;;;;;;;;20.90;50.20;;;;;;1549404;75;795;-60
2023/02/07 07:07:43;;;;;;;;;;;21.00;50.20;;;;;;1561254;76;612;-60
2023/02/07 07:09:45;;;;;;;;;;;21.00;50.20;;;;;;1562750;75;1148;-61
2023/02/07 07:11:47;;;;;;;;;;;20.90;50.20;;;;;;1569653;74;743;-60
2023/02/07 07:13:49;;;;;;;;;;;21.00;50.30;;;;;;1560532;75;1564;-60
2023/02/07 07:15:50;;;;;;;;;;;21.00;50.30;;;;;;1562336;76;818;-60
2023/02/07 07:17:52;;;;;;;;;;;20.90;50.30;;;;;;1554121;76;856;-61
2023/02/07 07:19:54;;;;;;;;;;;21.00;50.20;;;;;;1564411;75;1154;-60
2023/02/07 07:21:57;;;;;;;;;;;20.90;50.30;;;;;;1551862;76;1935;-61
2023/02/07 07:23:59;;;;;;;;;;;21.00;50.30;;;;;;1553802;76;796;-61
2023/02/07 07:26:01;;;;;;;;;;;20.90;50.30;;;;;;1562325;76;827;-60
2023/02/07 07:28:03;;;;;;;;;;;20.90;50.40;;;;;;1562810;74;1515;-60
2023/02/07 07:30:06;;;;;;;;;;;20.90;50.40;;;;;;1551076;75;1129;-59
2023/02/07 07:32:10;;;;;;;;;;;21.00;50.40;;;;;;1564073;76;772;-60
2023/02/07 07:34:12;;;;;;;;;;;20.90;50.40;;;;;;1559501;76;1679;-60
2023/02/07 07:36:14;;;;;;;;;;;21.00;50.40;;;;;;1554022;75;714;-60
2023/02/07 07:38:15;;;;;;;;;;;21.00;50.40;;;;;;1563500;76;860;-60
2023/02/07 07:40:17;;;;;;;;;;;20.90;50.40;;;;;;1562785;75;1097;-61
2023/02/07 07:42:19;;;;;;;;;;;21.00;50.40;;;;;;1564955;74;1972;-60
2023/02/07 07:44:21;;;;;;;;;;;21.00;50.40;;;;;;1559792;75;795;-61
2023/02/07 07:46:23;;;;;;;;;;;20.90;50.40;;;;;;1557804;76;754;-60
2023/02/07 07:48:25;;;;;;;;;;;20.90;50.40;;;;;;1562132;76;732;-60
2023/02/07 07:50:27;;;;;;;;;;;21.00;50.40;;;;;;1559267;75;1155;-60
2023/02/07 07:52:28;;;;;;;;;;;21.00;50.40;;;;;;1559764;75;692;-61
2023/02/07 07:54:30;;;;;;;;;;;20.90;50.40;;;;;;1563514;76;747;-60
2023/02/07 07:56:34;;;;;;;;;;;20.90;50.40;;;;;;1559902;74;1552;-60
2023/02/07 07:58:36;;;;;;;;;;;20.90;50.30;;;;;;1552783;76;741;-60
2023/02/07 08:00:37;;;;;;;;;;;20.90;50.40;;;;;;1550118;75;1138;-60
2023/02/07 08:02:40;;;;;;;;;;;20.90;50.40;;;;;;1562027;76;1934;-62
2023/02/07 08:04:42;;;;;;;;;;;20.90;50.40;;;;;;1553858;75;735;-61
2023/02/07 08:06:44;;;;;;;;;;;20.90;50.40;;;;;;1550799;76;820;-62
2023/02/07 08:08:46;;;;;;;;;;;20.90;50.00;;;;;;1547229;76;828;-60
2023/02/07 08:10:48;;;;;;;;;;;20.90;49.40;;;;;;1559024;74;1601;-62
2023/02/07 08:12:50;;;;;;;;;;;21.00;49.30;;;;;;1554908;76;801;-60
2023/02/07 08:14:52;;;;;;;;;;;20.90;49.30;;;;;;1554749;75;736;-60
2023/02/07 08:16:54;;;;;;;;;;;20.90;49.40;;;;;;1557932;76;652;-60
2023/02/07 08:18:55;;;;;;;;;;;20.90;49.40;;;;;;1562756;75;794;-60
2023/02/07 08:20:57;;;;;;;;;;;20.90;49.40;;;;;;1554552;76;1198;-60
2023/02/07 08:22:59;;;;;;;;;;;20.90;49.40;;;;;;1552788;76;1942;-60
2023/02/07 08:25:01;;;;;;;;;;;20.80;49.40;;;;;;1564207;76;1378;-61
2023/02/07 08:27:03;;;;;;;;;;;20.90;49.50;;;;;;1567016;74;796;-60
2023/02/07 08:29:05;;;;;;;;;;;20.90;49.60;;;;;;1558013;75;704;-60
2023/02/07 08:31:07;;;;;;;;;;;20.90;49.70;;;;;;1545653;76;1166;-60
2023/02/07 08:33:09;;;;;;;;;;;20.90;49.70;;;;;;1551963;76;750;-60
2023/02/07 08:35:11;;;;;;;;;;;20.90;49.70;;;;;;1555442;75;792;-61
2023/02/07 08:37:13;;;;;;;;;;;20.90;49.70;;;;;;1555301;75;789;-60
2023/02/07 08:39:15;;;;;;;;;;;20.90;49.70;;;;;;1550211;76;1662;-60
2023/02/07 08:41:17;;;;;;;;;;;20.90;49.80;;;;;;1553873;74;1102;-59
2023/02/07 08:43:19;;;;;;;;;;;20.90;49.70;;;;;;1557112;75;1950;-61
2023/02/07 08:45:20;;;;;;;;;;;20.90;49.80;;;;;;1562960;76;789;-60
2023/02/07 08:47:22;;;;;;;;;;;20.90;49.80;;;;;;1555744;76;784;-61
2023/02/07 08:49:24;;;;;;;;;;;20.90;49.90;;;;;;1556979;76;755;-62
2023/02/07 08:51:26;;;;;;;;;;;20.90;49.80;;;;;;1559278;75;1571;-60
2023/02/07 08:53:28;;;;;;;;;;;20.90;49.90;;;;;;1544160;76;703;-62
2023/02/07 08:55:30;;;;;;;;;;;20.90;49.90;;;;;;1570560;74;705;-61
2023/02/07 08:57:32;;;;;;;;;;;20.90;49.90;;;;;;1558605;76;760;-60
2023/02/07 08:59:33;;;;;;;;;;;20.90;49.90;;;;;;1550054;75;1163;-61
2023/02/07 09:01:35;;;;;;;;;;;20.90;50.00;;;;;;1552366;74;670;-61
2023/02/07 09:03:38;;;;;;;;;;;21.00;49.90;;;;;;1556977;75;1976;-60
2023/02/07 09:05:39;;;;;;;;;;;21.00;49.90;;;;;;1556387;75;1549;-60
2023/02/07 09:07:41;;;;;;;;;;;20.90;49.90;;;;;;1561246;75;782;-59
2023/02/07 09:09:43;;;;;;;;;;;21.00;49.90;;;;;;1560832;74;1178;-60
2023/02/07 09:11:45;;;;;;;;;;;21.00;49.90;;;;;;1557170;76;722;-62
2023/02/07 09:13:48;;;;;;;;;;;21.00;49.90;;;;;;1556622;75;801;-60
2023/02/07 09:15:54;;;;;;;;;;;21.00;49.90;;;;;;1558959;76;744;-61
2023/02/07 09:17:56;;;;;;;;;;;21.00;50.00;;;;;;1559162;75;1014;-60
2023/02/07 09:19:58;;;;;;;;;;;21.00;50.00;;;;;;1559934;75;1610;-61
2023/02/07 09:22:00;;;;;;;;;;;21.00;50.00;;;;;;1559302;75;766;-63
2023/02/07 09:24:01;;;;;;;;;;;21.00;49.90;;;;;;1558787;75;1965;-60
2023/02/07 09:26:04;;;;;;;;;;;21.00;50.00;;;;;;1563194;75;784;-60
2023/02/07 09:28:06;;;;;;;;;;;21.00;49.90;;;;;;1558894;75;696;-62
2023/02/07 09:30:08;;;;;;;;;;;21.00;49.90;;;;;;1547732;75;1153;-61
2023/02/07 09:32:10;;;;;;;;;;;21.10;50.00;;;;;;1554645;75;816;-60
2023/02/07 09:34:12;;;;;;;;;;;21.00;49.90;;;;;;1554235;76;1517;-60
2023/02/07 09:36:17;;;;;;;;;;;21.00;50.00;;;;;;1552448;75;765;-60
2023/02/07 09:38:21;;;;;;;;;;;21.00;49.90;;;;;;1555175;74;776;-61
2023/02/07 09:40:23;;;;;;;;;;;21.10;50.00;;;;;;1555220;75;1128;-64
2023/02/07 09:42:26;;;;;;;;;;;21.00;49.90;;;;;;1558085;75;1938;-59
2023/02/07 09:44:30;;;;;;;;;;;21.10;50.00;;;;;;1556798;75;1722;-60
2023/02/07 09:46:36;;;;;;;;;;;21.10;50.00;;;;;;1560823;75;1659;-61
2023/02/07 09:48:50;;;;;;;;;;;21.00;49.90;;;;;;1556910;75;1567;-61
2023/02/07 09:50:53;;;;;;;;;;;21.10;50.00;;;;;;1564690;75;1146;-61
2023/02/07 09:52:59;;;;;;;;;;;21.00;49.90;;;;;;1559110;74;759;-62
2023/02/07 09:55:01;;;;;;;;;;;21.10;50.00;;;;;;1550340;75;726;-60
2023/02/07 09:57:04;;;;;;;;;;;21.10;50.00;;;;;;1555760;76;763;-60
2023/02/07 09:59:08;;;;;;;;;;;21.10;50.00;;;;;;1554045;75;758;-60
2023/02/07 10:01:14;;;;;;;;;;;21.10;50.00;;;;;;1531903;75;1696;-61
2023/02/07 10:03:18;;;;;;;;;;;21.00;50.00;;;;;;1556033;75;1933;-60
2023/02/07 10:05:21;;;;;;;;;;;21.00;50.00;;;;;;1559613;75;728;-62
2023/02/07 10:07:23;;;;;;;;;;;21.00;49.90;;;;;;1559168;74;810;-60
2023/02/07 10:09:26;;;;;;;;;;;21.10;50.00;;;;;;1561147;75;787;-60
2023/02/07 10:11:33;;;;;;;;;;;21.10;50.10;;;;;;1552798;75;1835;-60
2023/02/07 10:13:39;;;;;;;;;;;21.10;50.10;;;;;;1552638;75;2274;-60
2023/02/07 10:15:43;;;;;;;;;;;21.10;50.00;;;;;;1504359;76;1030;-62
2023/02/07 10:18:04;;;;;;;;;;;21.10;50.10;;;;;;1554540;75;1650;-62
2023/02/07 10:20:20;;;;;;;;;;;21.10;50.10;;;;;;1560361;75;1964;-60
2023/02/07 10:22:41;;;;;;;;;;;21.10;50.10;;;;;;1556348;75;1924;-60
2023/02/07 10:24:45;;;;;;;;;;;21.10;50.10;;;;;;1549773;75;2129;-61
2023/02/07 10:26:51;;;;;;;;;;;21.10;50.20;;;;;;1559973;75;696;-61
2023/02/07 10:29:11;;;;;;;;;;;21.10;50.10;;;;;;1553466;75;1951;-62
2023/02/07 10:31:18;;;;;;;;;;;21.20;50.10;;;;;;1551814;76;1723;-61
2023/02/07 10:33:19;;;;;;;;;;;21.10;50.10;;;;;;1555847;75;1284;-63
2023/02/07 10:35:23;;;;;;;;;;;21.10;50.10;;;;;;1556462;75;1789;-62
2023/02/07 10:37:26;;;;;;;;;;;21.10;50.10;;;;;;1558167;74;1717;-61
2023/02/07 10:39:32;;;;;;;;;;;21.10;50.10;;;;;;1560905;75;732;-65
2023/02/07 10:41:38;;;;;;;;;;;21.10;50.10;;;;;;1556988;75;756;-61
2023/02/07 10:43:40;;;;;;;;;;;21.10;49.70;;;;;;1555780;75;1931;-61
2023/02/07 10:45:42;;;;;;;;;;;21.20;49.50;;;;;;1556561;75;1307;-61
2023/02/07 10:47:43;;;;;;;;;;;21.10;49.50;;;;;;1558382;76;718;-61
2023/02/07 10:49:49;;;;;;;;;;;21.10;49.60;;;;;;1563860;75;1116;-61
2023/02/07 10:51:51;;;;;;;;;;;21.10;49.60;;;;;;1549309;74;812;-61
2023/02/07 10:53:54;;;;;;;;;;;21.20;49.70;;;;;;1559677;75;675;-63
2023/02/07 10:55:56;;;;;;;;;;;21.10;49.70;;;;;;1547685;76;1676;-61
2023/02/07 10:57:58;;;;;;;;;;;21.10;49.70;;;;;;1561064;76;696;-61
2023/02/07 11:00:02;;;;;;;;;;;21.10;49.70;;;;;;1556138;75;1094;-61
2023/02/07 11:02:05;;;;;;;;;;;21.10;49.70;;;;;;1539044;75;1648;-61
2023/02/07 11:04:09;;;;;;;;;;;21.20;49.70;;;;;;1555810;76;1934;-61
2023/02/07 11:06:13;;;;;;;;;;;21.10;49.70;;;;;;1555068;75;976;-69
2023/02/07 11:08:17;;;;;;;;;;;21.10;49.70;;;;;;1548411;76;643;-61
2023/02/07 11:10:20;;;;;;;;;;;21.20;49.70;;;;;;1557737;75;1145;-63
2023/02/07 11:12:24;;;;;;;;;;;21.10;49.80;;;;;;1557354;76;1532;-62
2023/02/07 11:14:27;;;;;;;;;;;21.20;49.80;;;;;;1560458;75;776;-61
2023/02/07 11:16:28;;;;;;;;;;;21.10;49.80;;;;;;1556238;75;693;-62
2023/02/07 11:18:39;;;;;;;;;;;21.20;49.70;;;;;;1562868;75;764;-61
2023/02/07 11:20:41;;;;;;;;;;;21.20;49.70;;;;;;1553985;76;1167;-68
2023/02/07 11:22:43;;;;;;;;;;;21.10;49.80;;;;;;1556253;76;1937;-61
2023/02/07 11:24:45;;;;;;;;;;;21.20;49.80;;;;;;1562365;76;712;-62
2023/02/07 11:26:54;;;;;;;;;;;21.10;49.80;;;;;;1559222;76;1536;-61
2023/02/07 11:29:03;;;;;;;;;;;21.20;49.90;;;;;;1556654;75;825;-61
2023/02/07 11:31:07;;;;;;;;;;;21.20;49.80;;;;;;1550824;76;1109;-61
2023/02/07 11:33:10;;;;;;;;;;;21.30;50.00;;;;;;1550621;76;710;-66
2023/02/07 11:35:14;;;;;;;;;;;21.20;49.90;;;;;;1556014;76;1535;-62
2023/02/07 11:37:26;;;;;;;;;;;21.20;49.90;;;;;;1561889;75;1894;-61
2023/02/07 11:39:28;;;;;;;;;;;21.20;49.90;;;;;;1557445;76;799;-60
2023/02/07 11:41:30;;;;;;;;;;;21.20;49.90;;;;;;1558237;76;1544;-61
2023/02/07 11:43:33;;;;;;;;;;;21.30;50.00;;;;;;1563419;75;1924;-60
2023/02/07 11:45:35;;;;;;;;;;;21.20;50.00;;;;;;1563586;76;726;-62
2023/02/07 11:47:37;;;;;;;;;;;21.20;50.00;;;;;;1564277;76;762;-62
2023/02/07 11:49:42;;;;;;;;;;;21.20;50.00;;;;;;1556597;75;1085;-61
2023/02/07 11:51:44;;;;;;;;;;;21.20;49.90;;;;;;1549673;76;712;-62
2023/02/07 11:53:51;;;;;;;;;;;21.20;50.00;;;;;;1550235;75;797;-63
2023/02/07 11:55:53;;;;;;;;;;;21.20;50.00;;;;;;1548117;76;1829;-61
2023/02/07 11:58:00;;;;;;;;;;;21.20;50.00;;;;;;1559963;76;724;-62
2023/02/07 12:00:06;;;;;;;;;;;21.30;50.10;;;;;;1562276;75;1135;-63
2023/02/07 12:02:22;;;;;;;;;;;21.20;50.00;;;;;;1560283;76;737;-62
2023/02/07 12:04:25;;;;;;;;;;;21.20;50.00;;;;;;1563138;74;1953;-61
2023/02/07 12:06:38;;;;;;;;;;;21.20;50.00;;;;;;1560162;75;815;-62
2023/02/07 12:08:40;;;;;;;;;;;21.20;50.00;;;;;;1542730;75;1666;-61
2023/02/07 12:10:42;;;;;;;;;;;21.20;50.10;;;;;;1561592;75;1147;-63
2023/02/07 12:12:45;;;;;;;;;;;21.30;50.20;;;;;;1559583;76;723;-62
2023/02/07 12:14:54;;;;;;;;;;;21.20;50.00;;;;;;1555368;75;1870;-61
2023/02/07 12:16:57;;;;;;;;;;;21.30;50.20;;;;;;1564965;74;708;-61